Time;durP1;ratioP1;P1;durP2;ratioP2;P2;SDS_P1;SDS_P2;PMS_P1;PMS_P2;Temp;Humidity;BMP_temperature;BMP_pressure;BME280_temperature;BME280_humidity;BME280_pressure;Samples;Min_cycle;Max_cycle;Signal;HPM_P1;HPM_P2
2021/03/31 00:02:05;;;;;;;3.58;3.15;;;;;;;10.30;44.99;97459.00;5095562;28;20031;-74
2021/03/31 00:04:31;;;;;;;5.72;3.58;;;;;;;10.24;44.98;97457.91;5095375;28;20040;-74
2021/03/31 00:06:58;;;;;;;4.40;3.50;;;;;;;10.20;44.88;97461.13;5095190;28;20396;-74
2021/03/31 00:09:24;;;;;;;4.35;3.70;;;;;;;10.13;45.21;97456.63;5095211;28;20040;-74
2021/03/31 00:11:50;;;;;;;3.53;3.22;;;;;;;10.08;45.07;97453.78;5095073;28;20043;-74
2021/03/31 00:14:17;;;;;;;4.15;3.30;;;;;;;10.05;45.34;97458.59;5094744;28;20472;-74
2021/03/31 00:16:44;;;;;;;5.35;3.63;;;;;;;10.00;45.31;97451.28;5095472;28;20047;-74
2021/03/31 00:19:10;;;;;;;6.55;3.58;;;;;;;9.95;45.49;97449.25;5095070;28;20040;-74
2021/03/31 00:21:37;;;;;;;4.85;3.42;;;;;;;9.91;45.54;97449.78;5094883;28;20028;-74
2021/03/31 00:24:03;;;;;;;5.63;3.33;;;;;;;9.88;45.78;97445.75;5094801;28;20036;-75
2021/03/31 00:26:29;;;;;;;4.30;3.78;;;;;;;9.86;45.69;97449.56;5095194;28;20032;-74
2021/03/31 00:28:55;;;;;;;3.85;3.20;;;;;;;9.82;45.98;97451.72;5094856;28;20487;-75
2021/03/31 00:31:22;;;;;;;4.65;3.40;;;;;;;9.80;46.02;97439.81;5094811;28;20040;-75
2021/03/31 00:33:48;;;;;;;7.18;4.15;;;;;;;9.78;45.97;97441.81;5094132;28;20051;-74
2021/03/31 00:36:14;;;;;;;4.75;3.65;;;;;;;9.74;46.15;97439.59;5094510;28;20047;-75
2021/03/31 00:38:40;;;;;;;6.13;3.70;;;;;;;9.71;46.19;97441.78;5094935;28;20055;-75
2021/03/31 00:41:07;;;;;;;5.03;3.75;;;;;;;9.67;46.26;97433.47;5094688;28;20028;-74
2021/03/31 00:43:33;;;;;;;3.78;3.40;;;;;;;9.62;46.38;97437.66;5094801;28;20570;-74
2021/03/31 00:46:00;;;;;;;4.63;3.65;;;;;;;9.59;46.46;97436.22;5094618;28;20048;-74
2021/03/31 00:48:26;;;;;;;5.35;4.03;;;;;;;9.54;46.63;97439.38;5081231;28;20051;-74
2021/03/31 00:50:57;;;;;;;4.65;3.67;;;;;;;9.50;46.81;97443.38;5094483;28;20040;-75
2021/03/31 00:53:30;;;;;;;4.43;4.00;;;;;;;9.48;47.00;97441.94;5094266;28;20039;-74
2021/03/31 00:55:56;;;;;;;5.72;3.83;;;;;;;9.42;46.88;97438.25;5094588;28;20043;-74
2021/03/31 00:58:23;;;;;;;3.92;3.53;;;;;;;9.40;46.95;97437.63;5094565;28;20494;-74
2021/03/31 01:00:50;;;;;;;6.13;3.92;;;;;;;9.32;47.03;97441.19;5094183;28;20361;-74
2021/03/31 01:03:17;;;;;;;8.18;3.92;;;;;;;9.29;47.15;97428.47;5093992;28;20035;-74
2021/03/31 01:05:43;;;;;;;4.38;3.35;;;;;;;9.26;47.22;97438.47;5094218;28;20491;-74
2021/03/31 01:08:09;;;;;;;5.03;3.97;;;;;;;9.20;47.25;97436.59;5094360;28;20036;-74
2021/03/31 01:10:45;;;;;;;3.90;3.50;;;;;;;9.17;48.00;97435.16;5094582;28;20039;-74
2021/03/31 01:13:30;;;;;;;3.90;3.50;;;;;;;9.13;47.62;97431.28;5093829;28;20057;-74
2021/03/31 01:16:14;;;;;;;5.22;3.75;;;;;;;9.07;48.78;97432.88;5093882;28;20051;-74
2021/03/31 01:18:52;;;;;;;4.97;3.65;;;;;;;9.00;48.06;97426.72;5094633;28;20050;-74
2021/03/31 01:21:30;;;;;;;4.80;3.78;;;;;;;8.96;47.93;97425.47;5093993;28;20468;-75
2021/03/31 01:24:36;;;;;;;4.43;3.53;;;;;;;8.92;49.02;97430.28;5093997;28;20032;-74
2021/03/31 01:27:10;;;;;;;4.80;3.97;;;;;;;8.85;48.63;97420.72;5093731;28;20035;-74
2021/03/31 01:30:00;;;;;;;6.05;4.07;;;;;;;8.81;48.88;97417.63;5093190;28;20044;-74
2021/03/31 01:32:53;;;;;;;4.55;3.85;;;;;;;8.78;49.55;97423.25;5093648;28;20035;-74
2021/03/31 01:35:20;;;;;;;4.72;4.32;;;;;;;8.74;48.52;97411.53;5093490;28;20031;-74
2021/03/31 01:37:53;;;;;;;5.25;4.00;;;;;;;8.70;49.26;97413.69;5093814;28;20032;-74
2021/03/31 01:40:22;;;;;;;4.88;4.03;;;;;;;8.64;48.73;97406.56;5093800;28;20032;-74
2021/03/31 01:42:56;;;;;;;4.63;3.95;;;;;;;8.61;49.49;97406.09;5093308;28;20056;-74
2021/03/31 01:45:29;;;;;;;5.45;4.15;;;;;;;8.57;49.51;97407.47;5093097;28;20416;-74
2021/03/31 01:47:58;;;;;;;4.75;4.28;;;;;;;8.53;49.17;97400.00;5093970;28;20051;-74
2021/03/31 01:50:25;;;;;;;5.32;3.83;;;;;;;8.51;49.11;97404.59;5093497;28;20032;-74
2021/03/31 01:52:51;;;;;;;4.57;3.88;;;;;;;8.47;49.22;97400.72;5075380;28;20051;-74
2021/03/31 01:55:19;;;;;;;4.22;3.83;;;;;;;8.44;49.30;97398.47;5093071;28;20032;-75
2021/03/31 01:57:48;;;;;;;4.97;4.47;;;;;;;8.41;49.64;97404.06;5093329;28;20043;-74
2021/03/31 02:00:17;;;;;;;6.20;4.28;;;;;;;8.37;49.75;97396.72;5093109;28;20047;-74
2021/03/31 02:02:48;;;;;;;4.00;3.60;;;;;;;8.33;49.58;97393.66;5093354;28;20043;-74
2021/03/31 02:05:15;;;;;;;4.43;4.00;;;;;;;8.29;49.65;97385.38;5093041;28;20039;-74
2021/03/31 02:07:41;;;;;;;5.30;4.05;;;;;;;8.26;49.92;97385.72;5093097;28;20032;-74
2021/03/31 02:10:16;;;;;;;5.53;4.43;;;;;;;8.24;50.71;97390.31;5093385;28;20388;-74
2021/03/31 02:12:44;;;;;;;5.35;4.18;;;;;;;8.21;49.99;97389.84;5083623;28;20040;-74
2021/03/31 02:15:18;;;;;;;8.80;4.82;;;;;;;8.19;50.59;97377.00;5072998;28;20043;-74
2021/03/31 02:17:45;;;;;;;;;;;;;;;8.15;51.17;97383.56;5077956;28;20508;-75
2021/03/31 02:20:16;;;;;;;5.13;3.78;;;;;;;8.11;50.60;97377.06;5076963;28;20367;-74
2021/03/31 02:22:43;;;;;;;4.93;4.43;;;;;;;8.08;50.39;97374.81;5076176;28;20048;-74
2021/03/31 02:25:11;;;;;;;5.00;4.50;;;;;;;8.04;50.50;97366.53;5077072;28;20037;-74
2021/03/31 02:27:38;;;;;;;5.60;4.25;;;;;;;8.02;50.53;97376.34;5076889;28;20045;-74
2021/03/31 02:30:09;;;;;;;5.45;4.85;;;;;;;8.00;50.88;97377.50;5076933;28;20044;-74
2021/03/31 02:32:36;;;;;;;5.10;4.32;;;;;;;7.98;50.84;97374.25;5076847;28;20032;-74
2021/03/31 02:35:05;;;;;;;5.25;4.72;;;;;;;7.94;50.87;97371.19;5076725;28;20660;-74
2021/03/31 02:37:32;;;;;;;5.70;3.90;;;;;;;7.90;50.88;97369.94;5076585;28;20044;-74
2021/03/31 02:39:59;;;;;;;5.35;4.75;;;;;;;7.87;51.10;97371.09;5077225;28;20041;-74
2021/03/31 02:42:26;;;;;;;6.38;4.72;;;;;;;7.85;51.04;97365.25;5076392;28;20044;-74
2021/03/31 02:44:56;;;;;;;5.85;4.78;;;;;;;7.81;51.22;97363.97;5076622;28;20044;-74
2021/03/31 02:47:27;;;;;;;6.10;4.32;;;;;;;7.78;51.38;97368.75;5060478;28;20059;-74
2021/03/31 02:49:57;;;;;;;6.00;4.40;;;;;;;7.74;51.42;97357.81;5076753;28;20036;-74
2021/03/31 02:52:24;;;;;;;4.75;4.35;;;;;;;7.69;51.48;97360.97;5076005;28;20489;-75
2021/03/31 02:54:52;;;;;;;5.00;4.30;;;;;;;7.67;51.65;97355.13;5062696;28;20036;-74
2021/03/31 02:57:20;;;;;;;5.97;4.38;;;;;;;7.63;51.82;97347.81;5076486;28;20043;-75
2021/03/31 02:59:47;;;;;;;6.28;4.28;;;;;;;7.58;51.75;97348.34;5076406;28;20397;-74
2021/03/31 03:02:17;;;;;;;5.47;4.95;;;;;;;7.52;52.00;97355.06;5076077;28;20028;-74
2021/03/31 03:04:48;;;;;;;5.78;4.40;;;;;;;7.47;52.41;97354.78;5076104;28;20040;-74
2021/03/31 03:07:15;;;;;;;5.30;4.35;;;;;;;7.41;52.16;97350.28;5076186;28;20495;-74
2021/03/31 03:09:43;;;;;;;5.72;3.90;;;;;;;7.37;52.28;97346.41;5076070;28;20029;-74
2021/03/31 03:12:12;;;;;;;4.57;3.60;;;;;;;7.32;52.58;97344.28;5074911;28;20028;-74
2021/03/31 03:14:46;;;;;;;4.75;4.30;;;;;;;7.30;52.65;97343.66;5091937;28;20052;-75
2021/03/31 03:17:12;;;;;;;5.18;4.13;;;;;;;7.30;52.60;97353.28;5096245;28;20043;-74
2021/03/31 03:19:39;;;;;;;4.72;4.13;;;;;;;7.28;52.73;97350.84;5096340;28;20032;-74
2021/03/31 03:22:06;;;;;;;5.30;4.60;;;;;;;7.27;52.68;97346.63;5096345;28;20036;-74
2021/03/31 03:24:34;;;;;;;5.60;4.60;;;;;;;7.24;52.98;97353.97;5096231;28;20040;-74
2021/03/31 03:27:01;;;;;;;5.47;4.45;;;;;;;7.18;52.96;97341.63;5095960;28;20020;-74
2021/03/31 03:29:27;;;;;;;8.07;4.45;;;;;;;7.13;53.03;97343.97;5096264;28;20035;-74
2021/03/31 03:31:54;;;;;;;4.70;4.18;;;;;;;7.06;53.12;97341.25;5096550;28;20487;-74
2021/03/31 03:34:21;;;;;;;5.30;4.55;;;;;;;7.02;53.38;97340.78;5096337;28;20047;-74
2021/03/31 03:36:48;;;;;;;4.78;4.30;;;;;;;6.99;53.34;97345.50;5095850;28;20040;-75
2021/03/31 03:39:15;;;;;;;5.88;4.55;;;;;;;6.98;53.62;97352.53;5095844;28;20040;-74
2021/03/31 03:41:42;;;;;;;5.68;4.22;;;;;;;6.96;53.64;97351.09;5095847;28;20522;-74
2021/03/31 03:44:09;;;;;;;8.23;4.82;;;;;;;6.91;53.88;97349.81;5095640;28;20036;-74
2021/03/31 03:46:36;;;;;;;5.50;4.40;;;;;;;6.84;53.92;97361.88;5095808;28;20028;-74
2021/03/31 03:49:04;;;;;;;5.25;4.38;;;;;;;6.81;54.07;97356.22;5095699;28;20055;-75
2021/03/31 03:51:32;;;;;;;4.90;3.60;;;;;;;6.76;54.29;97351.53;5085630;28;20052;-74
2021/03/31 03:53:59;;;;;;;4.72;4.32;;;;;;;6.75;54.32;97356.91;5095654;28;20036;-74
2021/03/31 03:56:25;;;;;;;5.15;4.65;;;;;;;6.69;54.39;97346.16;5095977;28;20035;-74
2021/03/31 03:58:52;;;;;;;6.30;4.47;;;;;;;6.68;54.50;97351.56;5096113;28;20491;-74
2021/03/31 04:01:18;;;;;;;6.38;4.43;;;;;;;6.65;54.59;97350.09;5095340;28;20040;-75
2021/03/31 04:03:44;;;;;;;5.35;4.40;;;;;;;6.63;54.87;97352.06;5077369;28;20055;-75
2021/03/31 04:06:10;;;;;;;4.75;3.88;;;;;;;6.64;54.94;97347.69;5095423;28;20480;-75
2021/03/31 04:08:37;;;;;;;5.78;4.20;;;;;;;6.62;55.07;97349.63;5093758;28;20499;-74
2021/03/31 04:11:04;;;;;;;6.07;3.80;;;;;;;6.58;55.21;97338.72;5077247;28;20044;-75
2021/03/31 04:13:31;;;;;;;4.93;4.13;;;;;;;6.56;55.22;97345.09;5095197;28;20060;-74
2021/03/31 04:16:12;;;;;;;5.70;4.60;;;;;;;6.52;56.46;97346.44;5095501;28;20048;-74
2021/03/31 04:18:40;;;;;;;6.13;4.28;;;;;;;6.47;55.34;97344.34;5095106;28;20047;-74
2021/03/31 04:21:07;;;;;;;5.28;4.20;;;;;;;6.44;55.63;97342.03;5095099;28;20043;-74
2021/03/31 04:23:34;;;;;;;4.80;4.30;;;;;;;6.41;55.80;97347.63;5095146;28;20032;-74
2021/03/31 04:26:00;;;;;;;5.63;4.70;;;;;;;6.38;55.88;97346.13;5095258;28;20464;-75
2021/03/31 04:28:28;;;;;;;5.00;4.10;;;;;;;6.38;55.98;97345.34;5094829;28;20028;-74
2021/03/31 04:30:56;;;;;;;7.88;4.53;;;;;;;6.37;55.97;97341.13;5094964;28;20028;-74
2021/03/31 04:33:24;;;;;;;5.13;4.40;;;;;;;6.37;56.10;97339.31;5094849;28;20369;-74
2021/03/31 04:35:52;;;;;;;4.50;3.97;;;;;;;6.39;56.32;97341.75;5094473;28;20036;-74
2021/03/31 04:38:18;;;;;;;7.15;4.90;;;;;;;6.38;56.24;97345.34;5094657;28;20036;-74
2021/03/31 04:40:45;;;;;;;4.72;4.10;;;;;;;6.36;56.31;97348.09;5094721;28;20043;-74
2021/03/31 04:43:11;;;;;;;4.65;4.20;;;;;;;6.34;56.33;97342.28;5093609;28;20073;-74
2021/03/31 04:45:37;;;;;;;5.88;4.88;;;;;;;6.30;56.35;97347.00;5094634;28;20427;-74
2021/03/31 04:48:03;;;;;;;5.60;4.38;;;;;;;6.27;56.32;97343.91;5094344;28;20047;-74
2021/03/31 04:50:29;;;;;;;4.65;4.25;;;;;;;6.22;56.64;97341.81;5094390;28;20036;-74
2021/03/31 04:52:56;;;;;;;5.97;4.10;;;;;;;6.17;56.65;97358.91;5094230;28;20044;-75
2021/03/31 04:55:22;;;;;;;7.10;4.30;;;;;;;6.10;56.84;97350.97;5094619;28;20036;-75
2021/03/31 04:57:48;;;;;;;6.93;4.55;;;;;;;6.08;57.05;97337.28;5094671;28;20047;-74
2021/03/31 05:00:15;;;;;;;5.50;4.80;;;;;;;6.03;57.29;97337.81;5094507;28;20036;-74
2021/03/31 05:02:41;;;;;;;5.70;5.10;;;;;;;6.02;57.29;97333.56;5094270;28;20028;-74
2021/03/31 05:05:08;;;;;;;5.55;4.30;;;;;;;6.03;57.20;97337.81;5094035;28;20048;-74
2021/03/31 05:07:34;;;;;;;5.15;4.25;;;;;;;6.06;57.46;97341.84;5094710;28;20472;-74
2021/03/31 05:10:00;;;;;;;5.15;4.65;;;;;;;6.09;57.62;97344.13;5094262;28;20036;-74
2021/03/31 05:12:28;;;;;;;4.60;4.18;;;;;;;6.10;57.68;97338.75;5094716;28;20460;-74
2021/03/31 05:14:56;;;;;;;7.13;5.13;;;;;;;6.14;57.69;97344.44;5093986;28;20436;-74
2021/03/31 05:17:23;;;;;;;5.65;4.43;;;;;;;6.14;57.70;97338.44;5093964;28;20051;-74
2021/03/31 05:19:50;;;;;;;4.97;4.07;;;;;;;6.15;57.72;97340.03;5094142;28;20036;-74
2021/03/31 05:22:16;;;;;;;7.72;4.88;;;;;;;6.16;57.88;97337.28;5093779;28;20039;-74
2021/03/31 05:24:42;;;;;;;4.40;4.00;;;;;;;6.16;57.71;97334.66;5094332;28;20499;-74
2021/03/31 05:27:09;;;;;;;6.30;4.85;;;;;;;6.19;57.80;97328.31;5093821;28;20396;-74
2021/03/31 05:29:35;;;;;;;5.32;4.38;;;;;;;6.20;57.96;97332.56;5093975;28;20039;-74
2021/03/31 05:32:01;;;;;;;5.57;4.30;;;;;;;6.21;57.85;97332.34;5093678;28;20036;-75
2021/03/31 05:34:27;;;;;;;6.50;4.03;;;;;;;6.24;58.00;97332.03;5093451;28;20036;-74
2021/03/31 05:36:54;;;;;;;8.40;4.18;;;;;;;6.32;58.08;97327.75;5093535;28;20395;-74
2021/03/31 05:39:20;;;;;;;4.43;3.63;;;;;;;6.58;58.39;97327.50;5093285;28;20047;-74
2021/03/31 05:41:47;;;;;;;4.85;3.72;;;;;;;7.18;58.53;97326.81;5093698;28;20044;-74
2021/03/31 05:44:14;;;;;;;6.82;3.70;;;;;;;7.89;58.18;97326.50;5092067;28;20476;-74
2021/03/31 05:46:41;;;;;;;4.53;3.92;;;;;;;8.58;57.55;97322.81;5093187;28;20035;-75
2021/03/31 05:49:07;;;;;;;5.72;4.50;;;;;;;9.23;56.59;97310.63;5092922;28;20032;-74
2021/03/31 05:51:34;;;;;;;5.90;4.25;;;;;;;9.81;55.85;97303.41;5093092;28;20483;-75
2021/03/31 05:54:00;;;;;;;4.72;4.22;;;;;;;10.26;54.61;97289.94;5093744;28;20040;-75
2021/03/31 05:56:31;;;;;;;5.65;3.75;;;;;;;10.59;52.63;97279.63;5092373;28;20044;-75
2021/03/31 05:59:02;;;;;;;7.60;4.07;;;;;;;10.72;52.54;97279.66;5093571;28;20024;-74
2021/03/31 06:01:29;;;;;;;4.22;3.80;;;;;;;10.68;52.26;97275.81;5093214;28;20058;-74
2021/03/31 06:03:57;;;;;;;7.00;3.72;;;;;;;10.71;51.89;97279.88;5093381;28;20039;-74
2021/03/31 06:06:23;;;;;;;4.25;3.85;;;;;;;10.86;51.66;97280.50;5092919;28;20048;-75
2021/03/31 06:08:50;;;;;;;5.38;3.70;;;;;;;11.16;51.21;97273.06;5093125;28;20036;-74
2021/03/31 06:11:18;;;;;;;8.27;4.55;;;;;;;11.30;50.64;97273.09;5092956;28;20460;-74
2021/03/31 06:13:58;;;;;;;7.50;3.63;;;;;;;11.62;49.38;97268.81;5091906;28;20052;-74
2021/03/31 06:16:43;;;;;;;7.18;4.13;;;;;;;12.01;47.39;97261.91;5092814;28;20047;-75
2021/03/31 06:19:20;;;;;;;6.53;4.05;;;;;;;12.32;46.54;97261.19;5093494;28;20119;-75
2021/03/31 06:21:56;;;;;;;5.85;4.30;;;;;;;12.59;45.94;97267.13;5093022;28;20035;-75
2021/03/31 06:24:26;;;;;;;6.15;4.05;;;;;;;12.94;47.33;97273.84;5092702;28;20485;-75
2021/03/31 06:26:53;;;;;;;4.88;3.40;;;;;;;13.25;46.81;97266.94;5092284;28;20055;-75
2021/03/31 06:29:20;;;;;;;6.55;3.80;;;;;;;13.59;46.01;97268.31;5093076;28;20089;-75
2021/03/31 06:31:49;;;;;;;6.97;3.97;;;;;;;13.64;45.16;97268.47;5092769;28;20047;-74
2021/03/31 06:34:24;;;;;;;4.40;3.83;;;;;;;13.66;44.70;97265.63;5092903;28;20047;-75
2021/03/31 06:36:58;;;;;;;5.72;3.92;;;;;;;13.53;44.09;97267.34;5091779;28;20040;-75
2021/03/31 06:39:32;;;;;;;;;;;;;;;13.86;46.60;97275.94;5093602;28;20043;-75
2021/03/31 06:42:08;;;;;;;5.53;2.38;;;;;;;14.69;45.55;97272.78;5093077;28;19912;-75
2021/03/31 06:44:56;;;;;;;5.40;3.42;;;;;;;15.54;44.06;97255.88;5092842;28;20063;-75
2021/03/31 06:47:40;;;;;;;6.40;3.63;;;;;;;15.87;42.33;97267.72;5093050;28;20036;-75
2021/03/31 06:50:11;;;;;;;4.20;3.80;;;;;;;15.84;40.56;97257.63;5092699;28;20040;-75
2021/03/31 06:52:57;;;;;;;7.55;4.25;;;;;;;15.78;39.64;97248.75;5092857;28;20031;-75
2021/03/31 06:55:26;;;;;;;5.93;3.35;;;;;;;15.81;40.84;97260.72;5092531;28;20047;-75
2021/03/31 06:57:55;;;;;;;3.75;3.45;;;;;;;15.76;40.36;97252.69;5092418;28;20032;-75
2021/03/31 07:00:29;;;;;;;9.27;4.40;;;;;;;15.53;39.78;97251.63;5092877;28;20032;-75
2021/03/31 07:02:59;;;;;;;7.18;3.83;;;;;;;15.24;40.26;97258.59;5095748;28;20059;-75
2021/03/31 07:05:30;;;;;;;4.63;3.85;;;;;;;15.03;40.03;97254.66;5096372;28;20032;-74
2021/03/31 07:08:34;;;;;;;4.00;3.55;;;;;;;14.90;40.40;97254.84;5096096;28;20032;-75
2021/03/31 07:11:01;;;;;;;7.65;3.47;;;;;;;15.12;40.76;97255.94;5080988;28;20044;-75
2021/03/31 07:13:33;;;;;;;4.82;3.92;;;;;;;15.32;40.44;97247.69;5096219;28;20404;-75
2021/03/31 07:16:04;;;;;;;6.72;3.58;;;;;;;15.23;40.15;97247.22;5096141;28;20036;-75
2021/03/31 07:18:33;;;;;;;4.80;3.42;;;;;;;15.09;40.26;97245.81;5096169;28;20032;-75
2021/03/31 07:21:00;;;;;;;4.85;3.83;;;;;;;15.12;40.14;97252.47;5096317;28;20036;-75
2021/03/31 07:23:27;;;;;;;6.20;3.60;;;;;;;15.11;39.97;97250.88;5096010;28;20465;-75
2021/03/31 07:25:58;;;;;;;4.88;3.63;;;;;;;15.06;39.86;97246.28;5095866;28;20036;-75
2021/03/31 07:28:29;;;;;;;6.20;4.45;;;;;;;14.99;39.97;97243.75;5096102;28;20059;-75
2021/03/31 07:30:57;;;;;;;5.85;3.95;;;;;;;14.82;40.02;97246.22;5095800;28;20055;-75
2021/03/31 07:33:36;;;;;;;5.07;4.20;;;;;;;14.76;40.12;97254.22;5096039;28;20461;-75
2021/03/31 07:36:08;;;;;;;7.03;3.85;;;;;;;14.63;40.09;97255.22;5095891;28;20429;-75
2021/03/31 07:38:36;;;;;;;5.53;4.63;;;;;;;14.83;40.42;97249.66;5095835;28;20132;-75
2021/03/31 07:41:03;;;;;;;8.65;5.07;;;;;;;14.99;40.31;97241.09;5095538;28;20402;-75
2021/03/31 07:43:36;;;;;;;7.32;5.30;;;;;;;15.30;39.94;97246.31;5096382;28;20048;-75
2021/03/31 07:46:06;;;;;;;7.82;5.13;;;;;;;15.72;39.83;97243.59;5095451;28;20043;-75
2021/03/31 07:48:33;;;;;;;5.75;4.75;;;;;;;16.24;39.38;97233.06;5095580;28;20028;-75
2021/03/31 07:51:18;;;;;;;8.45;4.90;;;;;;;16.48;37.59;97239.06;5095621;28;20035;-75
2021/03/31 07:53:45;;;;;;;8.65;4.45;;;;;;;16.85;38.40;97244.00;5095109;28;20043;-75
2021/03/31 07:56:15;;;;;;;9.85;4.53;;;;;;;17.29;37.66;97233.63;5095776;28;20062;-75
2021/03/31 07:58:41;;;;;;;6.28;4.53;;;;;;;17.72;37.37;97239.28;5095898;28;20040;-75
2021/03/31 08:01:11;;;;;;;9.43;4.82;;;;;;;17.94;36.61;97234.03;5095195;28;20036;-75
2021/03/31 08:03:41;;;;;;;7.20;4.50;;;;;;;18.23;35.40;97238.13;5077797;28;20047;-75
2021/03/31 08:06:20;;;;;;;8.63;5.15;;;;;;;18.50;35.44;97239.22;5095020;28;20035;-75
2021/03/31 08:08:49;;;;;;;6.50;5.07;;;;;;;18.60;35.33;97244.63;5095107;28;20135;-75
2021/03/31 08:11:41;;;;;;;5.40;4.72;;;;;;;18.63;34.50;97239.63;5095187;28;20040;-75
2021/03/31 08:14:12;;;;;;;11.60;4.80;;;;;;;18.52;34.35;97245.91;5093941;28;20060;-75
2021/03/31 08:16:42;;;;;;;6.82;4.63;;;;;;;18.50;34.91;97255.16;5094975;28;20059;-75
2021/03/31 08:19:31;;;;;;;13.30;4.80;;;;;;;18.62;34.77;97245.19;5094645;28;20032;-75
2021/03/31 08:21:59;;;;;;;8.30;4.80;;;;;;;18.94;34.42;97245.28;5095152;28;20493;-75
2021/03/31 08:24:46;;;;;;;9.93;5.25;;;;;;;19.06;33.22;97243.25;5094650;28;20384;-75
2021/03/31 08:27:14;;;;;;;10.27;5.22;;;;;;;19.32;33.93;97240.81;5093769;28;20048;-75
2021/03/31 08:29:43;;;;;;;9.25;5.60;;;;;;;19.33;33.48;97242.41;5094796;28;20039;-75
2021/03/31 08:32:11;;;;;;;10.50;5.70;;;;;;;19.32;33.51;97234.69;5094809;28;20039;-75
2021/03/31 08:34:38;;;;;;;11.65;5.50;;;;;;;19.39;33.42;97236.06;5075979;28;20036;-75
2021/03/31 08:37:07;;;;;;;10.52;5.88;;;;;;;19.60;33.28;97233.56;5094471;28;20035;-75
2021/03/31 08:39:34;;;;;;;7.65;5.07;;;;;;;19.78;33.38;97235.03;5094650;28;20027;-75
2021/03/31 08:42:03;;;;;;;11.50;5.15;;;;;;;19.92;32.80;97230.06;5093581;28;20396;-76
2021/03/31 08:44:33;;;;;;;5.57;5.03;;;;;;;19.92;32.85;97224.72;5094957;28;20044;-75
2021/03/31 08:47:10;;;;;;;7.05;5.57;;;;;;;19.79;32.48;97221.47;5094288;28;20407;-75
2021/03/31 08:49:36;;;;;;;7.00;5.53;;;;;;;19.86;32.78;97229.22;5093055;28;20052;-75
2021/03/31 08:52:09;;;;;;;7.22;5.45;;;;;;;19.95;32.70;97232.19;5094190;28;20036;-75
2021/03/31 08:54:41;;;;;;;8.48;5.68;;;;;;;19.98;32.60;97226.34;5094108;28;20036;-75
2021/03/31 08:57:14;;;;;;;6.30;5.68;;;;;;;20.07;32.88;97224.78;5094162;28;20047;-76
2021/03/31 08:59:46;;;;;;;6.47;5.82;;;;;;;20.04;32.69;97226.13;5081842;28;20079;-75
2021/03/31 09:02:13;;;;;;;8.15;6.30;;;;;;;20.02;32.58;97222.91;5094052;28;20047;-76
2021/03/31 09:04:40;;;;;;;6.22;5.63;;;;;;;19.84;32.46;97221.50;5094075;28;20032;-75
2021/03/31 09:07:11;;;;;;;10.65;6.28;;;;;;;19.96;32.90;97218.63;5094461;28;20048;-76
2021/03/31 09:09:40;;;;;;;8.02;6.35;;;;;;;20.15;32.88;97218.19;5094301;28;20396;-75
2021/03/31 09:12:11;;;;;;;8.68;6.15;;;;;;;20.31;32.75;97219.03;5093894;28;20055;-75
2021/03/31 09:14:41;;;;;;;8.10;6.55;;;;;;;20.30;32.07;97214.75;5094211;28;20404;-75
2021/03/31 09:17:10;;;;;;;7.32;6.50;;;;;;;20.17;32.55;97213.38;5093460;28;20116;-75
2021/03/31 09:19:41;;;;;;;9.38;6.32;;;;;;;19.99;32.59;97204.81;5094313;28;20038;-75
2021/03/31 09:22:14;;;;;;;7.50;6.10;;;;;;;19.96;32.77;97210.63;5093735;28;20036;-75
2021/03/31 09:24:48;;;;;;;9.65;6.63;;;;;;;20.00;33.47;97208.25;5092257;28;20456;-75
2021/03/31 09:27:21;;;;;;;8.77;6.60;;;;;;;19.90;33.25;97206.34;5093654;28;20040;-75
2021/03/31 09:29:48;;;;;;;10.73;6.53;;;;;;;19.87;33.18;97205.00;5092812;28;20047;-75
2021/03/31 09:32:18;;;;;;;10.93;6.72;;;;;;;19.76;33.54;97203.38;5092523;28;20044;-75
2021/03/31 09:34:44;;;;;;;9.65;6.45;;;;;;;19.71;33.57;97200.66;5093905;28;20055;-75
2021/03/31 09:37:26;;;;;;;8.63;6.63;;;;;;;19.60;33.63;97204.28;5093441;28;20448;-75
2021/03/31 09:39:58;;;;;;;9.45;7.07;;;;;;;19.37;33.68;97195.63;5093271;28;20044;-75
2021/03/31 09:42:32;;;;;;;7.97;6.68;;;;;;;19.40;33.95;97196.97;5094148;28;20040;-75
2021/03/31 09:44:59;;;;;;;;;;;;;;;19.45;34.55;97202.34;5094460;28;20399;-75
2021/03/31 09:47:31;;;;;;;8.57;7.05;;;;;;;19.51;34.85;97198.66;5093283;28;19977;-75
2021/03/31 09:50:25;;;;;;;7.40;6.57;;;;;;;19.63;34.29;97204.59;5093735;28;20043;-75
2021/03/31 09:52:56;;;;;;;9.90;6.85;;;;;;;19.82;34.43;97197.00;5093084;28;20392;-75
2021/03/31 09:55:23;;;;;;;10.80;6.82;;;;;;;19.80;34.19;97188.47;5093374;28;20400;-75
2021/03/31 09:57:52;;;;;;;8.75;6.63;;;;;;;19.77;34.10;97188.97;5093073;28;20396;-75
2021/03/31 10:00:23;;;;;;;10.82;7.10;;;;;;;19.90;34.30;97190.38;5093670;28;20036;-75
2021/03/31 10:02:52;;;;;;;7.70;6.82;;;;;;;20.06;34.03;97183.25;5093133;28;20047;-75
2021/03/31 10:05:25;;;;;;;8.40;7.10;;;;;;;20.16;33.99;97180.63;5093179;28;20043;-75
2021/03/31 10:08:02;;;;;;;7.82;7.13;;;;;;;20.23;34.02;97162.53;5093887;28;20051;-75
2021/03/31 10:10:45;;;;;;;11.10;7.18;;;;;;;20.16;33.69;97174.50;5075085;28;20032;-75
2021/03/31 10:13:16;;;;;;;11.00;6.53;;;;;;;20.14;34.09;97164.13;5093361;28;20032;-76
2021/03/31 10:15:46;;;;;;;11.82;7.47;;;;;;;20.35;33.97;97158.81;5093603;28;20500;-75
2021/03/31 10:18:13;;;;;;;8.50;6.55;;;;;;;20.40;33.67;97159.66;5092806;28;20055;-75
2021/03/31 10:20:47;;;;;;;7.65;6.95;;;;;;;20.49;33.69;97151.94;5092639;28;20043;-75
2021/03/31 10:23:35;;;;;;;10.05;6.72;;;;;;;20.71;33.48;97150.94;5093387;28;20098;-75
2021/03/31 10:26:25;;;;;;;12.82;7.57;;;;;;;20.91;32.73;97155.47;5093041;28;20036;-75
2021/03/31 10:28:54;;;;;;;8.35;7.38;;;;;;;21.06;32.54;97150.13;5093154;28;20031;-75
2021/03/31 10:31:28;;;;;;;10.15;7.45;;;;;;;21.21;31.83;97158.13;5075406;28;20028;-74
2021/03/31 10:33:55;;;;;;;11.32;6.78;;;;;;;21.40;32.36;97153.03;5093032;28;20032;-76
2021/03/31 10:36:59;;;;;;;10.00;6.75;;;;;;;21.78;31.16;97137.47;5094760;28;20032;-76
2021/03/31 10:48:14;;;;;;;9.70;7.25;;;;;;;22.54;31.03;97134.69;5095722;28;20048;-76
2021/03/31 10:51:23;;;;;;;8.90;6.60;;;;;;;22.60;30.90;97133.59;5089771;28;20491;-76
2021/03/31 10:53:48;;;;;;;8.73;6.40;;;;;;;22.78;30.08;97126.75;5082261;28;20051;-76
2021/03/31 10:56:14;;;;;;;6.88;6.10;;;;;;;23.12;30.20;97126.78;5095645;28;20040;-76
2021/03/31 10:58:43;;;;;;;6.88;6.15;;;;;;;23.29;29.70;97126.34;5096605;28;20464;-76
2021/03/31 11:01:10;;;;;;;8.25;6.95;;;;;;;23.48;29.24;97119.16;5096284;28;20044;-76
2021/03/31 11:03:37;;;;;;;7.18;6.43;;;;;;;23.61;29.04;97114.22;5097114;28;20035;-76
2021/03/31 11:06:06;;;;;;;5.70;5.20;;;;;;;23.83;28.57;97113.69;5095888;28;20032;-76
2021/03/31 11:08:32;;;;;;;7.40;5.97;;;;;;;23.97;28.04;97119.94;5096568;28;20452;-77
2021/03/31 11:10:59;;;;;;;8.93;6.03;;;;;;;24.05;27.77;97108.59;5096469;28;20043;-76
2021/03/31 11:13:25;;;;;;;7.72;6.10;;;;;;;24.10;27.35;97100.47;5096370;28;20071;-76
2021/03/31 11:15:54;;;;;;;6.03;5.35;;;;;;;24.22;26.83;97107.31;5096153;28;20048;-76
2021/03/31 11:21:08;;;;;;;6.22;5.00;;;;;;;24.35;25.21;97095.06;5096199;28;20452;-77
2021/03/31 11:26:19;;;;;;;5.40;4.90;;;;;;;24.91;24.59;97094.97;5096033;28;20039;-76
2021/03/31 11:28:46;;;;;;;6.72;4.60;;;;;;;25.19;23.63;97091.56;5077769;28;20044;-76
2021/03/31 11:31:12;;;;;;;5.22;4.70;;;;;;;25.45;23.60;97083.81;5095178;28;20036;-76
2021/03/31 11:33:38;;;;;;;5.57;5.07;;;;;;;25.58;23.02;97088.41;5095900;28;20032;-76
2021/03/31 11:36:05;;;;;;;6.55;4.18;;;;;;;25.49;22.72;97079.44;5096218;28;20036;-75
2021/03/31 11:38:32;;;;;;;4.68;4.20;;;;;;;25.55;22.13;97077.47;5095810;28;20036;-76
2021/03/31 11:40:58;;;;;;;4.60;4.20;;;;;;;25.51;21.96;97074.56;5095628;28;20044;-76
2021/03/31 11:43:24;;;;;;;3.88;3.58;;;;;;;25.56;21.28;97071.03;5096193;28;20039;-76
2021/03/31 11:45:51;;;;;;;5.57;4.70;;;;;;;25.57;21.35;97065.31;5095954;28;20044;-76
2021/03/31 11:48:18;;;;;;;4.63;4.13;;;;;;;25.52;21.15;97058.19;5093645;28;20052;-75
2021/03/31 11:50:44;;;;;;;4.78;3.63;;;;;;;25.59;20.81;97055.09;5095822;28;20047;-75
2021/03/31 11:53:12;;;;;;;6.65;4.32;;;;;;;25.64;20.24;97048.81;5095357;28;20039;-75
2021/03/31 11:55:39;;;;;;;5.00;4.53;;;;;;;25.72;20.21;97051.59;5096364;28;20380;-76
2021/03/31 11:58:05;;;;;;;5.97;4.10;;;;;;;25.65;20.17;97050.41;5095885;28;20036;-76
2021/03/31 12:00:32;;;;;;;4.30;3.92;;;;;;;25.66;20.17;97033.19;5095320;28;20032;-75
2021/03/31 12:02:58;;;;;;;4.35;3.95;;;;;;;25.77;19.92;97044.53;5095778;28;20047;-75
2021/03/31 12:05:24;;;;;;;5.90;4.00;;;;;;;25.78;20.06;97035.34;5095282;28;20040;-76